createdAt,value
2018-08-22T00:02:08.277Z,99.90
2018-08-22T00:04:35.736Z,99.90
2018-08-22T00:07:03.192Z,99.90
2018-08-22T00:09:30.656Z,99.90
2018-08-22T00:11:58.869Z,99.90
2018-08-22T00:14:26.332Z,99.90
2018-08-22T00:16:53.878Z,99.90
2018-08-22T00:19:21.412Z,99.90
2018-08-22T00:21:48.883Z,99.90
2018-08-22T00:24:16.341Z,99.90
2018-08-22T00:26:43.809Z,99.90
2018-08-22T00:29:11.271Z,99.90
2018-08-22T00:31:38.752Z,99.90
2018-08-22T00:34:06.279Z,99.90
2018-08-22T00:36:33.776Z,99.90
2018-08-22T00:39:01.580Z,99.90
2018-08-22T00:41:29.348Z,99.90
2018-08-22T00:43:57.583Z,99.90
2018-08-22T00:46:25.031Z,99.90
2018-08-22T00:48:52.472Z,99.90
2018-08-22T00:51:19.928Z,99.90
2018-08-22T00:53:47.380Z,99.90
2018-08-22T00:56:14.928Z,99.90
2018-08-22T00:58:42.404Z,99.90
2018-08-22T01:01:09.842Z,99.90
2018-08-22T01:03:37.360Z,99.90
2018-08-22T01:06:04.860Z,99.90
2018-08-22T01:08:32.360Z,99.90
2018-08-22T01:10:59.821Z,99.90
2018-08-22T01:13:27.255Z,99.90
2018-08-22T01:15:55.084Z,99.90
2018-08-22T01:18:22.540Z,99.90
2018-08-22T01:20:49.992Z,99.90
2018-08-22T01:23:17.460Z,99.90
2018-08-22T01:25:44.901Z,99.90
2018-08-22T01:28:12.341Z,99.90
2018-08-22T01:30:39.787Z,99.90
2018-08-22T01:33:07.232Z,99.90
2018-08-22T01:35:34.684Z,99.90
2018-08-22T01:38:02.128Z,99.90
2018-08-22T01:40:29.564Z,99.90
2018-08-22T01:42:57.052Z,99.90
2018-08-22T01:45:24.527Z,99.90
2018-08-22T01:47:51.963Z,99.90
2018-08-22T01:50:19.456Z,99.90
2018-08-22T01:52:46.899Z,99.90
2018-08-22T01:55:14.344Z,99.90
2018-08-22T01:57:42.183Z,99.90
2018-08-22T02:00:09.735Z,99.90
2018-08-22T02:02:37.500Z,99.90
2018-08-22T02:05:05.084Z,99.90
2018-08-22T02:07:32.601Z,99.90
2018-08-22T02:10:00.119Z,99.90
2018-08-22T02:12:27.655Z,99.90
2018-08-22T02:14:55.123Z,99.90
2018-08-22T02:17:22.600Z,99.90
2018-08-22T02:19:50.053Z,99.90
2018-08-22T02:22:17.485Z,99.90
2018-08-22T02:24:44.957Z,99.90
2018-08-22T02:27:12.468Z,99.90
2018-08-22T02:29:39.984Z,99.90
2018-08-22T02:32:07.527Z,99.90
2018-08-22T02:34:35.380Z,99.90
2018-08-22T02:37:02.839Z,99.90
2018-08-22T02:39:30.340Z,99.90
2018-08-22T02:41:58.595Z,99.90
2018-08-22T02:44:26.007Z,99.90
2018-08-22T02:46:53.529Z,99.90
2018-08-22T02:49:20.987Z,99.90
2018-08-22T02:51:48.428Z,99.90
2018-08-22T02:54:15.908Z,99.90
2018-08-22T02:56:43.824Z,99.90
2018-08-22T02:59:11.492Z,99.90
2018-08-22T03:01:38.953Z,99.90
2018-08-22T03:04:06.397Z,99.90
2018-08-22T03:06:33.885Z,99.90
2018-08-22T03:09:01.328Z,99.90
2018-08-22T03:11:28.800Z,99.90
2018-08-22T03:13:56.324Z,99.90
2018-08-22T03:16:23.760Z,99.90
2018-08-22T03:18:51.416Z,99.90
2018-08-22T03:21:18.849Z,99.90
2018-08-22T03:23:46.898Z,99.90
2018-08-22T03:26:14.336Z,99.90
2018-08-22T03:28:42.247Z,99.90
2018-08-22T03:31:09.707Z,99.90
2018-08-22T03:33:37.163Z,99.90
2018-08-22T03:36:04.643Z,99.90
2018-08-22T03:38:34.460Z,99.90
2018-08-22T03:41:01.986Z,99.90
2018-08-22T03:43:29.489Z,99.90
2018-08-22T03:45:57.094Z,99.90
2018-08-22T03:48:24.684Z,99.90
2018-08-22T03:50:52.316Z,99.90
2018-08-22T03:53:20.134Z,99.90
2018-08-22T03:55:47.753Z,99.90
2018-08-22T03:58:15.199Z,99.90
2018-08-22T04:00:42.735Z,99.90
2018-08-22T04:03:10.339Z,99.90
2018-08-22T04:05:37.899Z,99.90
2018-08-22T04:08:05.444Z,99.90
2018-08-22T04:10:32.896Z,99.90
2018-08-22T04:13:00.467Z,99.90
2018-08-22T04:15:27.956Z,99.90
2018-08-22T04:17:55.437Z,99.90
2018-08-22T04:20:22.895Z,99.90
2018-08-22T04:22:50.591Z,99.90
2018-08-22T04:25:18.070Z,99.90
2018-08-22T04:27:45.492Z,99.90
2018-08-22T04:30:12.948Z,99.90
2018-08-22T04:32:40.576Z,99.90
2018-08-22T04:35:08.064Z,99.90
2018-08-22T04:37:35.535Z,99.90
2018-08-22T04:40:03.061Z,99.90
2018-08-22T04:42:30.537Z,99.90
2018-08-22T04:44:58.008Z,99.90
2018-08-22T04:47:25.514Z,99.90
2018-08-22T04:49:52.977Z,99.90
2018-08-22T04:52:22.201Z,99.90
2018-08-22T04:54:50.421Z,99.90
2018-08-22T04:57:17.856Z,99.90
2018-08-22T04:59:45.352Z,99.90
2018-08-22T05:02:12.816Z,99.90
2018-08-22T05:04:40.515Z,99.90
2018-08-22T05:07:08.107Z,99.90
2018-08-22T05:09:35.564Z,99.90
2018-08-22T05:12:03.416Z,99.90
2018-08-22T05:14:31.010Z,99.90
2018-08-22T05:16:58.532Z,99.90
2018-08-22T05:19:26.495Z,99.90
2018-08-22T05:21:54.745Z,99.90
2018-08-22T05:24:22.200Z,99.90
2018-08-22T05:26:50.289Z,99.90
2018-08-22T05:29:17.828Z,99.90
2018-08-22T05:31:45.652Z,99.90
2018-08-22T05:34:13.188Z,99.90
2018-08-22T05:36:40.612Z,99.90
2018-08-22T05:39:09.700Z,99.90
2018-08-22T05:41:37.112Z,99.90
2018-08-22T05:44:04.600Z,99.90
2018-08-22T05:46:32.080Z,99.90
2018-08-22T05:48:59.575Z,99.90
2018-08-22T05:51:27.176Z,99.90
2018-08-22T05:53:54.678Z,99.90
2018-08-22T05:56:22.167Z,99.90
2018-08-22T05:58:50.380Z,99.90
2018-08-22T06:01:17.808Z,99.90
2018-08-22T06:03:45.371Z,99.90
2018-08-22T06:06:12.815Z,99.90
2018-08-22T06:08:40.344Z,99.90
2018-08-22T06:11:07.831Z,99.90
2018-08-22T06:13:35.340Z,99.90
2018-08-22T06:16:02.804Z,99.90
2018-08-22T06:18:30.233Z,99.90
2018-08-22T06:20:57.690Z,99.90
2018-08-22T06:23:25.165Z,99.90
2018-08-22T06:25:52.612Z,99.90
2018-08-22T06:28:20.120Z,99.90
2018-08-22T06:30:47.567Z,99.90
2018-08-22T06:33:14.987Z,99.90
2018-08-22T06:35:42.436Z,99.90
2018-08-22T06:38:09.860Z,99.90
2018-08-22T06:40:37.336Z,99.90
2018-08-22T06:43:04.796Z,99.90
2018-08-22T06:45:32.228Z,99.90
2018-08-22T06:47:59.976Z,99.90
2018-08-22T06:50:27.404Z,99.90
2018-08-22T06:52:54.890Z,99.90
2018-08-22T06:55:22.362Z,99.90
2018-08-22T06:57:49.862Z,99.90
2018-08-22T07:00:17.406Z,99.90
2018-08-22T07:02:44.879Z,99.90
2018-08-22T07:05:12.339Z,99.90
2018-08-22T07:07:39.883Z,99.90
2018-08-22T07:10:07.336Z,99.90
2018-08-22T07:12:34.792Z,99.90
2018-08-22T07:15:02.270Z,99.90
2018-08-22T07:17:29.748Z,99.90
2018-08-22T07:19:57.200Z,99.90
2018-08-22T07:22:24.658Z,99.90
2018-08-22T07:24:52.195Z,99.90
2018-08-22T07:27:20.055Z,99.90
2018-08-22T07:29:47.519Z,99.90
2018-08-22T07:32:14.961Z,99.90
2018-08-22T07:34:42.439Z,99.90
2018-08-22T07:37:09.943Z,99.90
2018-08-22T07:39:37.444Z,99.90
2018-08-22T07:42:05.236Z,99.90
2018-08-22T07:44:32.691Z,99.90
2018-08-22T07:47:04.737Z,99.90
2018-08-22T07:49:32.200Z,99.90
2018-08-22T07:51:59.668Z,99.90
2018-08-22T07:54:34.658Z,99.90
2018-08-22T07:57:02.285Z,99.90
2018-08-22T07:59:29.989Z,99.90
2018-08-22T08:01:57.721Z,99.90
2018-08-22T08:04:25.149Z,99.90
2018-08-22T08:06:52.701Z,99.90
2018-08-22T08:09:20.184Z,99.90
2018-08-22T08:11:47.672Z,99.90
2018-08-22T08:14:15.093Z,99.90
2018-08-22T08:16:42.564Z,99.90
2018-08-22T08:19:10.128Z,99.90
2018-08-22T08:21:37.628Z,99.90
2018-08-22T08:24:05.770Z,99.90
2018-08-22T08:26:33.270Z,99.90
2018-08-22T08:29:00.729Z,99.90
2018-08-22T08:31:28.273Z,99.90
2018-08-22T08:33:55.752Z,99.90
2018-08-22T08:36:23.162Z,99.90
2018-08-22T08:38:51.243Z,99.90
2018-08-22T08:41:18.750Z,99.90
2018-08-22T08:43:46.200Z,99.90
2018-08-22T08:46:13.744Z,99.90
2018-08-22T08:48:41.216Z,99.90
2018-08-22T08:51:08.708Z,99.90
2018-08-22T08:53:36.132Z,99.90
2018-08-22T08:56:03.617Z,99.90
2018-08-22T08:58:31.136Z,99.90
2018-08-22T09:00:58.696Z,99.90
2018-08-22T09:03:26.166Z,99.90
2018-08-22T09:05:53.668Z,99.40
2018-08-22T09:08:21.134Z,99.90
2018-08-22T09:10:48.659Z,99.30
2018-08-22T09:13:16.784Z,99.70
2018-08-22T09:15:44.303Z,99.10
2018-08-22T09:18:11.712Z,99.90
2018-08-22T09:20:39.843Z,99.90
2018-08-22T09:23:07.351Z,99.30
2018-08-22T09:25:34.901Z,99.90
2018-08-22T09:28:02.512Z,99.40
2018-08-22T09:30:29.992Z,97.20
2018-08-22T09:32:57.486Z,98.00
2018-08-22T09:35:25.012Z,96.90
2018-08-22T09:37:52.467Z,96.90
2018-08-22T09:40:19.942Z,97.30
2018-08-22T09:42:47.841Z,96.80
2018-08-22T09:45:15.303Z,97.40
2018-08-22T09:47:43.155Z,95.60
2018-08-22T09:50:11.039Z,98.00
2018-08-22T09:52:38.500Z,96.50
2018-08-22T09:55:06.730Z,96.50
2018-08-22T09:57:34.224Z,94.80
2018-08-22T10:00:01.768Z,93.20
2018-08-22T10:02:29.225Z,94.30
2018-08-22T10:04:58.142Z,95.20
2018-08-22T10:07:25.709Z,92.10
2018-08-22T10:09:53.178Z,94.40
2018-08-22T10:12:29.873Z,93.30
2018-08-22T10:14:57.397Z,93.80
2018-08-22T10:17:25.038Z,94.20
2018-08-22T10:19:52.833Z,93.70
2018-08-22T10:22:20.321Z,95.10
2018-08-22T10:24:47.739Z,94.60
2018-08-22T10:27:15.228Z,94.60
2018-08-22T10:29:42.704Z,95.20
2018-08-22T10:32:10.211Z,94.00
2018-08-22T10:34:37.686Z,92.10
2018-08-22T10:37:05.143Z,94.00
2018-08-22T10:39:32.746Z,94.10
2018-08-22T10:42:00.261Z,94.40
2018-08-22T10:44:27.788Z,93.60
2018-08-22T10:46:55.562Z,93.80
2018-08-22T10:49:23.176Z,93.70
2018-08-22T10:51:50.664Z,92.00
2018-08-22T10:54:18.423Z,92.70
2018-08-22T10:56:46.075Z,90.50
2018-08-22T10:59:13.560Z,94.40
2018-08-22T11:01:41.258Z,93.40
2018-08-22T11:04:08.857Z,95.30
2018-08-22T11:06:36.471Z,93.20
2018-08-22T11:09:06.288Z,90.90
2018-08-22T11:11:33.929Z,92.20
2018-08-22T11:14:01.492Z,94.50
2018-08-22T11:16:29.158Z,94.30
2018-08-22T11:18:56.648Z,91.50
2018-08-22T11:21:35.572Z,92.10
2018-08-22T11:24:14.571Z,92.80
2018-08-22T11:26:53.600Z,93.30
2018-08-22T11:29:32.711Z,91.00
2018-08-22T11:32:11.684Z,91.00
2018-08-22T11:34:44.435Z,91.80
2018-08-22T11:37:13.079Z,94.90
2018-08-22T11:39:42.496Z,94.30
2018-08-22T11:42:09.999Z,91.40
2018-08-22T11:44:37.592Z,94.20
2018-08-22T11:47:05.059Z,93.50
2018-08-22T11:49:32.788Z,91.60
2018-08-22T11:52:00.492Z,93.00
2018-08-22T11:54:28.636Z,92.30
2018-08-22T11:56:56.104Z,94.60
2018-08-22T11:59:23.607Z,93.90
2018-08-22T12:01:51.265Z,92.80
2018-08-22T12:04:18.901Z,91.80
2018-08-22T12:06:46.353Z,93.90
2018-08-22T12:09:13.832Z,94.80
2018-08-22T12:11:42.110Z,95.20
2018-08-22T12:14:09.587Z,90.50
2018-08-22T12:16:37.048Z,93.50
2018-08-22T12:19:04.651Z,90.70
2018-08-22T12:21:32.184Z,93.00
2018-08-22T12:23:59.699Z,94.20
2018-08-22T12:26:27.185Z,88.70
2018-08-22T12:28:54.799Z,92.20
2018-08-22T12:31:22.319Z,94.70
2018-08-22T12:33:49.849Z,93.90
2018-08-22T12:36:17.314Z,92.40
2018-08-22T12:38:45.059Z,90.30
2018-08-22T12:41:12.583Z,90.80
2018-08-22T12:43:41.066Z,92.60
2018-08-22T12:46:08.750Z,92.80
2018-08-22T12:48:36.300Z,94.30
2018-08-22T12:51:04.143Z,93.30
2018-08-22T12:53:31.657Z,95.50
2018-08-22T12:55:59.112Z,95.40
2018-08-22T12:58:26.615Z,93.60
2018-08-22T13:00:54.076Z,87.00
2018-08-22T13:03:21.559Z,88.60
2018-08-22T13:05:49.372Z,92.70
2018-08-22T13:08:16.836Z,92.10
2018-08-22T13:10:44.310Z,93.00
2018-08-22T13:13:12.340Z,91.40
2018-08-22T13:15:39.971Z,90.00
2018-08-22T13:18:07.444Z,92.30
2018-08-22T13:20:35.064Z,91.30
2018-08-22T13:23:02.946Z,90.90
2018-08-22T13:25:30.458Z,91.30
2018-08-22T13:27:57.921Z,92.90
2018-08-22T13:30:25.474Z,91.00
2018-08-22T13:32:53.583Z,92.70
2018-08-22T13:35:21.106Z,90.90
2018-08-22T13:37:48.560Z,92.20
2018-08-22T13:40:16.191Z,93.10
2018-08-22T13:42:43.635Z,92.30
2018-08-22T13:45:11.092Z,87.20
2018-08-22T13:47:38.592Z,93.90
2018-08-22T13:50:06.114Z,94.00
2018-08-22T13:52:33.625Z,87.40
2018-08-22T13:55:01.156Z,92.50
2018-08-22T13:57:28.679Z,87.90
2018-08-22T13:59:56.153Z,90.70
2018-08-22T14:02:23.733Z,93.60
2018-08-22T14:04:51.824Z,90.90
2018-08-22T14:07:19.441Z,89.70
2018-08-22T14:09:47.208Z,91.80
2018-08-22T14:12:14.744Z,90.10
2018-08-22T14:14:42.224Z,91.30
2018-08-22T14:17:09.769Z,92.80
2018-08-22T14:19:37.605Z,91.30
2018-08-22T14:22:05.264Z,93.70
2018-08-22T14:24:33.003Z,92.60
2018-08-22T14:27:00.530Z,91.10
2018-08-22T14:29:28.040Z,90.00
2018-08-22T14:31:55.655Z,89.00
2018-08-22T14:34:23.195Z,92.20
2018-08-22T14:36:50.823Z,93.20
2018-08-22T14:39:18.645Z,91.50
2018-08-22T14:41:46.179Z,91.90
2018-08-22T14:44:13.747Z,92.00
2018-08-22T14:46:41.564Z,93.90
2018-08-22T14:49:09.135Z,92.00
2018-08-22T14:51:37.066Z,92.30
2018-08-22T14:54:04.809Z,91.10
2018-08-22T14:56:32.412Z,94.40
2018-08-22T14:59:00.201Z,92.50
2018-08-22T15:01:27.921Z,91.50
2018-08-22T15:03:55.444Z,89.70
2018-08-22T15:06:22.946Z,93.10
2018-08-22T15:09:00.524Z,91.30
2018-08-22T15:11:28.584Z,92.30
2018-08-22T15:13:56.196Z,90.10
2018-08-22T15:16:23.840Z,90.20
2018-08-22T15:18:51.429Z,87.20
2018-08-22T15:21:18.955Z,87.80
2018-08-22T15:23:46.411Z,91.60
2018-08-22T15:26:13.872Z,90.50
2018-08-22T15:28:41.355Z,91.30
2018-08-22T15:31:08.852Z,90.30
2018-08-22T15:33:36.307Z,92.10
2018-08-22T15:36:03.811Z,92.30
2018-08-22T15:38:31.292Z,90.40
2018-08-22T15:40:58.778Z,94.00
2018-08-22T15:43:26.237Z,91.60
2018-08-22T15:45:53.690Z,91.90
2018-08-22T15:48:21.144Z,91.40
2018-08-22T15:50:48.613Z,90.30
2018-08-22T15:53:16.137Z,87.50
2018-08-22T15:55:43.559Z,89.70
2018-08-22T15:58:11.009Z,92.00
2018-08-22T16:00:42.560Z,90.50
2018-08-22T16:03:10.356Z,91.10
2018-08-22T16:05:38.936Z,91.10
2018-08-22T16:08:06.746Z,89.90
2018-08-22T16:10:34.248Z,90.20
2018-08-22T16:13:01.950Z,90.10
2018-08-22T16:15:34.719Z,90.70
2018-08-22T16:18:07.100Z,90.80
2018-08-22T16:20:42.248Z,90.60
2018-08-22T16:23:09.704Z,91.40
2018-08-22T16:25:43.376Z,91.60
2018-08-22T16:28:10.911Z,92.10
2018-08-22T16:30:38.386Z,90.00
2018-08-22T16:33:05.977Z,91.70
2018-08-22T16:35:33.484Z,91.10
2018-08-22T16:38:03.127Z,90.50
2018-08-22T16:40:35.241Z,92.40
2018-08-22T16:43:02.779Z,91.60
2018-08-22T16:45:30.832Z,90.40
2018-08-22T16:47:58.305Z,90.60
2018-08-22T16:50:25.901Z,90.80
2018-08-22T16:52:54.252Z,90.40
2018-08-22T16:55:22.919Z,92.10
2018-08-22T16:57:51.128Z,90.90
2018-08-22T17:00:31.712Z,90.70
2018-08-22T17:02:59.217Z,90.30
2018-08-22T17:05:26.720Z,90.20
2018-08-22T17:07:54.277Z,92.20
2018-08-22T17:10:21.793Z,90.80
2018-08-22T17:12:49.321Z,91.70
2018-08-22T17:15:16.853Z,91.30
2018-08-22T17:17:44.640Z,91.10
2018-08-22T17:20:12.271Z,91.40
2018-08-22T17:22:39.752Z,92.00
2018-08-22T17:25:07.635Z,92.60
2018-08-22T17:27:35.288Z,92.40
2018-08-22T17:30:02.923Z,92.40
2018-08-22T17:32:30.769Z,93.70
2018-08-22T17:34:58.617Z,94.30
2018-08-22T17:37:26.400Z,93.90
2018-08-22T17:39:53.906Z,93.70
2018-08-22T17:42:21.359Z,93.80
2018-08-22T17:44:48.798Z,94.10
2018-08-22T17:47:16.307Z,94.00
2018-08-22T17:50:18.607Z,94.30
2018-08-22T17:52:46.060Z,94.70
2018-08-22T17:55:13.623Z,95.20
2018-08-22T17:57:41.537Z,96.70
2018-08-22T18:00:18.916Z,95.90
2018-08-22T18:02:48.232Z,97.40
2018-08-22T18:05:15.723Z,96.80
2018-08-22T18:07:43.879Z,96.60
2018-08-22T18:10:11.497Z,97.60
2018-08-22T18:12:39.914Z,98.30
2018-08-22T18:15:07.525Z,99.00
2018-08-22T18:17:34.995Z,98.90
2018-08-22T18:20:02.604Z,99.80
2018-08-22T18:22:32.501Z,99.90
2018-08-22T18:25:00.000Z,99.90
2018-08-22T18:27:27.740Z,99.90
2018-08-22T18:29:55.163Z,99.90
2018-08-22T18:32:22.611Z,99.90
2018-08-22T18:35:03.057Z,99.90
2018-08-22T18:37:31.271Z,99.90
2018-08-22T18:40:24.623Z,99.90
2018-08-22T18:42:55.445Z,99.90
2018-08-22T18:45:23.641Z,99.90
2018-08-22T18:47:51.275Z,99.90
2018-08-22T18:50:19.082Z,99.90
2018-08-22T18:52:49.393Z,99.90
2018-08-22T18:55:16.988Z,99.90
2018-08-22T18:57:44.758Z,99.90
2018-08-22T19:00:12.257Z,99.90
2018-08-22T19:02:39.724Z,99.90
2018-08-22T19:05:20.644Z,99.90
2018-08-22T19:08:02.052Z,99.90
2018-08-22T19:10:32.046Z,99.90
2018-08-22T19:13:05.217Z,99.90
2018-08-22T19:15:33.383Z,99.90
2018-08-22T19:18:01.568Z,99.90
2018-08-22T19:20:29.033Z,99.90
2018-08-22T19:22:56.989Z,99.90
2018-08-22T19:25:24.710Z,99.90
2018-08-22T19:27:52.199Z,99.90
2018-08-22T19:30:19.758Z,99.90
2018-08-22T19:32:47.321Z,99.90
2018-08-22T19:35:15.220Z,99.90
2018-08-22T19:37:44.243Z,99.90
2018-08-22T19:40:11.745Z,99.90
2018-08-22T19:42:40.216Z,99.90
2018-08-22T19:45:09.237Z,99.90
2018-08-22T19:47:38.126Z,99.90
2018-08-22T19:50:06.425Z,99.90
2018-08-22T19:52:33.905Z,99.90
2018-08-22T19:55:03.644Z,99.90
2018-08-22T19:57:34.329Z,99.90
2018-08-22T20:00:03.412Z,99.90
2018-08-22T20:02:30.987Z,99.90
2018-08-22T20:04:58.537Z,99.90
2018-08-22T20:07:26.155Z,99.90
2018-08-22T20:09:54.970Z,99.90
2018-08-22T20:12:33.920Z,99.90
2018-08-22T20:15:01.600Z,99.90
2018-08-22T20:17:29.512Z,99.90
2018-08-22T20:19:57.017Z,99.90
2018-08-22T20:22:29.277Z,99.90
2018-08-22T20:24:58.739Z,99.90
2018-08-22T20:27:26.216Z,99.90
2018-08-22T20:29:58.500Z,99.90
2018-08-22T20:32:28.921Z,99.90
2018-08-22T20:34:58.158Z,99.90
2018-08-22T20:37:25.689Z,99.90
2018-08-22T20:39:59.357Z,99.90
2018-08-22T20:42:27.074Z,99.90
2018-08-22T20:44:55.762Z,99.90
2018-08-22T20:47:23.336Z,99.90
2018-08-22T20:49:51.349Z,99.90
2018-08-22T20:52:18.912Z,99.90
2018-08-22T20:54:53.649Z,99.90
2018-08-22T20:57:21.888Z,99.90
2018-08-22T20:59:49.456Z,99.90
2018-08-22T21:02:17.906Z,99.90
2018-08-22T21:04:46.075Z,99.90
2018-08-22T21:07:14.149Z,99.90
2018-08-22T21:09:41.654Z,99.90
2018-08-22T21:12:09.201Z,99.90
2018-08-22T21:14:36.778Z,99.90
2018-08-22T21:17:04.236Z,99.90
2018-08-22T21:19:31.757Z,99.90
2018-08-22T21:21:59.296Z,99.90
2018-08-22T21:24:26.805Z,99.90
2018-08-22T21:26:55.750Z,99.90
2018-08-22T21:29:23.244Z,99.90
2018-08-22T21:31:50.715Z,99.90
2018-08-22T21:34:20.169Z,99.90
2018-08-22T21:36:47.731Z,99.90
2018-08-22T21:39:20.988Z,99.90
2018-08-22T21:41:48.622Z,99.90
2018-08-22T21:44:17.954Z,99.90
2018-08-22T21:46:46.480Z,99.90
2018-08-22T21:49:15.103Z,99.90
2018-08-22T21:51:43.102Z,99.90
2018-08-22T21:54:11.550Z,99.90
2018-08-22T21:56:39.434Z,99.90
2018-08-22T21:59:07.952Z,99.90
2018-08-22T22:01:44.468Z,99.90
2018-08-22T22:04:13.697Z,99.90
2018-08-22T22:06:41.202Z,99.90
2018-08-22T22:09:08.737Z,99.90
2018-08-22T22:11:36.245Z,99.90
2018-08-22T22:14:10.660Z,99.90
2018-08-22T22:16:38.217Z,99.90
2018-08-22T22:19:05.742Z,99.90
2018-08-22T22:21:33.209Z,99.90
2018-08-22T22:24:00.701Z,99.90
2018-08-22T22:26:28.352Z,99.90
2018-08-22T22:28:56.486Z,99.90
2018-08-22T22:31:23.996Z,99.90
2018-08-22T22:33:58.340Z,99.90
2018-08-22T22:36:25.881Z,99.90
2018-08-22T22:38:53.420Z,99.90
2018-08-22T22:41:24.112Z,99.90
2018-08-22T22:43:51.873Z,99.90
2018-08-22T22:46:19.452Z,99.90
2018-08-22T22:48:46.977Z,99.90
2018-08-22T22:51:14.468Z,99.90
2018-08-22T22:53:41.909Z,99.90
2018-08-22T22:56:09.409Z,99.90
2018-08-22T22:58:37.516Z,99.90
2018-08-22T23:01:05.702Z,99.90
2018-08-22T23:03:33.223Z,99.90
2018-08-22T23:06:00.744Z,99.90
2018-08-22T23:08:28.383Z,99.90
2018-08-22T23:10:56.640Z,99.90
2018-08-22T23:13:24.817Z,99.90
2018-08-22T23:15:52.383Z,99.90
2018-08-22T23:18:19.915Z,99.90
2018-08-22T23:20:47.400Z,99.90
2018-08-22T23:23:41.141Z,99.90
2018-08-22T23:26:18.767Z,99.90
2018-08-22T23:28:46.229Z,99.90
2018-08-22T23:31:17.417Z,99.90
2018-08-22T23:33:44.915Z,99.90
2018-08-22T23:36:12.365Z,99.90
2018-08-22T23:38:39.863Z,99.90
2018-08-22T23:41:07.309Z,99.90
2018-08-22T23:43:50.147Z,99.90
2018-08-22T23:46:17.754Z,99.90
2018-08-22T23:48:49.942Z,99.90
2018-08-22T23:51:17.439Z,99.90
2018-08-22T23:53:48.297Z,99.90
2018-08-22T23:56:21.759Z,99.90
2018-08-22T23:58:50.075Z,99.90
